Aérodrome :
LOGIN :

S'inscrire | Disclaimer

   EN    FR    IT 

 










Légende :    VFR   VFR Marginal   IFR   IFR Intensif   IFR Très Intensif
Visi : 
Plafond : 
>= 8 km
>= 3000ft
5 à 8 km
1000 à 3000 ft
1500m à 5 km
500 à 1000 ft
800 à 1500m
200 à 500 ft
< 800m
< 200 ft
Symboles :   Orages  Brouillard  Fortes neiges  Fortes précipitations  Vent > 20 kt
SIGMETs :   Divers  Orages  Givrage  Turbulence  Onde Orograph.  Cendres Volcan.







- Altitude de l'aérodrome : 83 ft
- Code IATA : VOL


LGBL - Aghialos Volos

DERNIER METAR :
  • 190150Z 30005KT 9999 SCT010 OVC020 08/06 Q1010

METARs EXPIRÉS :
  • 190050Z 30005KT 9999 SCT010 OVC020 07/05 Q1009
  • 182350Z 30004KT 9999 SCT010 OVC020 07/05 Q1010

TAF TAF LGBL
Valide du 19 à 03h jusqu'au 19 à 12h UTC


190200Z 1903/1912 28010KT 4000 BR SCT008 SCT020
PROB30
TEMPO 1905/1907 2000 BR SCT006 SCT020
BECMG 1907/1909 9999 FEW025
BECMG 1910/1912 11008KT
Pas de NOTAMs connus pour ce terrain.
1 SIGMET publié pour la FIR Athinai (LGGG) :
 
Orages noyés dans la masse
LGGG SIGMET 1 VALID 190050/190250 LGAT
LGGG ATHINAI FIR/UIR EMBD TS OBS SE OF LINE N3800 E02400 - N4100 E02530 MNLY OVER MAR MOV NE NC=



MET'MAP, la Météo Aéronautique d'un coup d'oeil ! - Copyright ORBIFLY Décembre 2007 - Disclaimer

ORBIFLY MET'MAP TEAM :

Programmation & Développement : Alexandra Zaïnal
Conception & Développement : Baudouin d'Aumeries
Co-Programmation & Développement : Marc-Olivier Méhu
Soutien technique & logistique : Manuel Goepfert

Contact : metmap@orbifly.com




SOURCES & CREDITS :

   NOAA